createdAt,value
2023-02-15T00:00:07.716Z,58.33
2023-02-15T00:03:31.966Z,58.12
2023-02-15T00:06:37.515Z,58.03
2023-02-15T00:09:41.261Z,58.05
2023-02-15T00:12:45.632Z,58.54
2023-02-15T00:15:49.035Z,58.81
2023-02-15T00:18:54.385Z,59.15
2023-02-15T00:21:59.481Z,59.17
2023-02-15T00:25:03.487Z,58.75
2023-02-15T00:28:06.967Z,58.39
2023-02-15T00:31:14.543Z,58.19
2023-02-15T00:34:20.068Z,58.46
2023-02-15T00:37:25.492Z,58.36
2023-02-15T00:40:29.074Z,58.44
2023-02-15T00:43:34.428Z,57.98
2023-02-15T00:46:38.661Z,57.84
2023-02-15T00:49:42.597Z,58.11
2023-02-15T00:52:47.750Z,58.06
2023-02-15T00:55:51.824Z,57.75
2023-02-15T00:58:55.321Z,57.75
2023-02-15T01:01:59.048Z,57.81
2023-02-15T01:05:02.670Z,57.94
2023-02-15T01:08:08.701Z,57.92
2023-02-15T01:11:15.152Z,57.62
2023-02-15T01:14:19.054Z,58.04
2023-02-15T01:17:22.469Z,58.32
2023-02-15T01:20:29.355Z,58.17
2023-02-15T01:23:35.847Z,58.08
2023-02-15T01:26:39.775Z,58.21
2023-02-15T01:29:43.510Z,57.94
2023-02-15T01:32:47.308Z,58.16
2023-02-15T01:35:50.836Z,58.55
2023-02-15T01:38:56.014Z,58.32
2023-02-15T01:41:59.656Z,57.87
2023-02-15T01:45:08.624Z,57.77
2023-02-15T01:48:22.401Z,58.29
2023-02-15T01:51:31.422Z,58.16
2023-02-15T01:54:39.217Z,58.33
2023-02-15T01:57:45.985Z,58.06
2023-02-15T02:00:50.559Z,58.44
2023-02-15T02:04:02.724Z,58.75
2023-02-15T02:07:09.050Z,58.30
2023-02-15T02:10:18.066Z,58.46
2023-02-15T02:13:22.133Z,59.09
2023-02-15T02:16:35.097Z,58.50
2023-02-15T02:20:13.280Z,58.75
2023-02-15T02:23:47.288Z,58.34
2023-02-15T02:27:18.707Z,58.71
2023-02-15T02:30:45.526Z,58.80
2023-02-15T02:34:00.583Z,59.27
2023-02-15T02:37:17.524Z,58.90
2023-02-15T02:40:28.313Z,58.65
2023-02-15T02:43:37.694Z,58.73
2023-02-15T02:46:51.257Z,58.82
2023-02-15T02:50:02.306Z,58.90
2023-02-15T02:53:05.973Z,59.13
2023-02-15T02:56:25.304Z,58.54
2023-02-15T02:59:35.859Z,58.71
2023-02-15T03:02:47.164Z,58.15
2023-02-15T03:05:57.560Z,57.81
2023-02-15T03:09:15.543Z,58.12
2023-02-15T03:12:22.655Z,57.68
2023-02-15T03:15:51.804Z,57.79
2023-02-15T03:18:59.312Z,57.60
2023-02-15T03:22:10.493Z,57.84
2023-02-15T03:25:20.127Z,57.74
2023-02-15T03:28:33.597Z,58.13
2023-02-15T03:31:44.132Z,58.93
2023-02-15T03:34:48.594Z,58.12
2023-02-15T03:37:59.800Z,58.49
2023-02-15T03:41:14.137Z,57.94
2023-02-15T03:44:26.178Z,57.76
2023-02-15T03:47:34.937Z,58.41
2023-02-15T03:50:57.833Z,57.78
2023-02-15T03:54:05.044Z,58.38
2023-02-15T03:57:29.419Z,58.71
2023-02-15T04:00:55.589Z,58.18
2023-02-15T04:04:05.554Z,58.68
2023-02-15T04:07:11.026Z,59.04
2023-02-15T04:10:33.466Z,59.39
2023-02-15T04:13:38.701Z,59.33
2023-02-15T04:16:41.127Z,58.79
2023-02-15T04:20:02.447Z,58.78
2023-02-15T04:23:25.640Z,59.47
2023-02-15T04:26:30.755Z,58.61
2023-02-15T04:29:34.397Z,58.27
2023-02-15T04:32:39.527Z,58.25
2023-02-15T04:35:44.156Z,58.52
2023-02-15T04:38:47.945Z,58.76
2023-02-15T04:41:52.900Z,58.22
2023-02-15T04:44:56.750Z,57.93
2023-02-15T04:48:00.545Z,58.05
2023-02-15T04:51:07.671Z,57.81
2023-02-15T04:54:11.208Z,57.80
2023-02-15T04:57:16.635Z,57.81
2023-02-15T05:00:21.870Z,57.56
2023-02-15T05:03:25.789Z,57.73
2023-02-15T05:06:29.422Z,57.74
2023-02-15T05:09:33.764Z,57.74
2023-02-15T05:12:41.062Z,57.73
2023-02-15T05:15:49.635Z,57.97
2023-02-15T05:18:53.218Z,57.77
2023-02-15T05:21:57.401Z,57.84
2023-02-15T05:25:18.451Z,57.36
2023-02-15T05:28:24.561Z,57.87
2023-02-15T05:31:28.373Z,57.92
2023-02-15T05:34:32.556Z,58.39
2023-02-15T05:37:36.087Z,58.39
2023-02-15T05:40:39.905Z,58.48
2023-02-15T05:43:44.908Z,58.43
2023-02-15T05:46:48.924Z,58.11
2023-02-15T05:49:52.589Z,58.24
2023-02-15T05:52:56.622Z,58.44
2023-02-15T05:56:04.062Z,58.82
2023-02-15T05:59:11.031Z,58.46
2023-02-15T06:02:15.242Z,58.93
2023-02-15T06:05:19.780Z,58.86
2023-02-15T06:08:23.759Z,59.01
2023-02-15T06:11:27.657Z,58.50
2023-02-15T06:14:32.783Z,58.76
2023-02-15T06:17:36.620Z,58.33
2023-02-15T06:20:42.155Z,58.31
2023-02-15T06:23:45.993Z,58.05
2023-02-15T06:26:50.706Z,58.50
2023-02-15T06:29:56.557Z,58.27
2023-02-15T06:33:04.330Z,58.02
2023-02-15T06:36:08.384Z,58.20
2023-02-15T06:39:11.791Z,58.98
2023-02-15T06:42:15.683Z,59.71
2023-02-15T06:45:21.079Z,59.15
2023-02-15T06:48:25.124Z,58.79
2023-02-15T06:51:28.675Z,58.50
2023-02-15T06:54:32.498Z,58.10
2023-02-15T06:57:36.280Z,58.18
2023-02-15T07:00:42.093Z,58.48
2023-02-15T07:03:46.903Z,58.38
2023-02-15T07:06:53.791Z,58.53
2023-02-15T07:09:57.477Z,58.26
2023-02-15T07:13:04.455Z,58.68
2023-02-15T07:16:12.746Z,58.23
2023-02-15T07:19:18.970Z,58.32
2023-02-15T07:22:25.225Z,58.06
2023-02-15T07:25:29.423Z,57.98
2023-02-15T07:28:34.681Z,58.10
2023-02-15T07:31:44.497Z,57.36
2023-02-15T07:34:48.176Z,56.83
2023-02-15T07:37:54.681Z,57.02
2023-02-15T07:41:04.891Z,57.10
2023-02-15T07:44:14.560Z,56.47
2023-02-15T07:47:19.594Z,55.98
2023-02-15T07:50:26.070Z,55.76
2023-02-15T07:53:31.766Z,55.39
2023-02-15T07:56:37.124Z,55.20
2023-02-15T07:59:40.691Z,54.75
2023-02-15T08:03:14.179Z,55.48
2023-02-15T08:06:23.260Z,55.45
2023-02-15T08:09:27.801Z,55.37
2023-02-15T08:12:31.280Z,54.45
2023-02-15T08:15:35.669Z,53.80
2023-02-15T08:18:41.705Z,53.92
2023-02-15T08:21:47.920Z,53.04
2023-02-15T08:24:52.426Z,52.88
2023-02-15T08:27:56.256Z,52.70
2023-02-15T08:31:07.046Z,51.18
2023-02-15T08:34:17.424Z,49.64
2023-02-15T08:37:22.043Z,50.26
2023-02-15T08:40:26.685Z,50.26
2023-02-15T08:43:30.971Z,49.90
2023-02-15T08:46:37.365Z,50.56
2023-02-15T08:49:45.451Z,50.27
2023-02-15T08:52:50.078Z,51.10
2023-02-15T08:55:58.339Z,50.99
2023-02-15T08:59:02.466Z,49.92
2023-02-15T09:02:07.425Z,49.72
2023-02-15T09:05:13.441Z,49.31
2023-02-15T09:08:17.312Z,50.18
2023-02-15T09:11:25.334Z,49.63
2023-02-15T09:14:29.427Z,49.16
2023-02-15T09:17:33.805Z,48.48
2023-02-15T09:20:40.717Z,48.86
2023-02-15T09:23:45.838Z,48.33
2023-02-15T09:26:50.667Z,48.26
2023-02-15T09:29:54.726Z,48.64
2023-02-15T09:32:58.463Z,49.00
2023-02-15T09:36:03.784Z,47.39
2023-02-15T09:39:11.166Z,47.16
2023-02-15T09:42:51.326Z,46.67
2023-02-15T09:46:14.186Z,46.34
2023-02-15T09:49:27.283Z,46.47
2023-02-15T09:52:55.940Z,46.41
2023-02-15T09:56:09.780Z,47.36
2023-02-15T09:59:26.666Z,47.52
2023-02-15T10:02:44.805Z,46.57
2023-02-15T10:06:02.491Z,47.20
2023-02-15T10:09:29.936Z,46.28
2023-02-15T10:12:59.707Z,47.32
2023-02-15T10:16:21.768Z,46.60
2023-02-15T10:19:43.009Z,45.50
2023-02-15T10:23:04.351Z,46.86
2023-02-15T10:26:21.004Z,46.32
2023-02-15T10:29:36.607Z,45.60
2023-02-15T10:32:58.431Z,44.98
2023-02-15T10:36:14.653Z,45.95
2023-02-15T10:39:28.061Z,45.26
2023-02-15T10:42:43.891Z,45.39
2023-02-15T10:46:03.110Z,44.99
2023-02-15T10:49:26.297Z,45.05
2023-02-15T10:52:43.645Z,46.33
2023-02-15T10:55:59.224Z,46.45
2023-02-15T10:59:25.254Z,47.26
2023-02-15T11:02:44.778Z,45.80
2023-02-15T11:06:06.656Z,45.70
2023-02-15T11:09:16.733Z,45.96
2023-02-15T11:12:26.260Z,47.70
2023-02-15T11:15:37.486Z,46.83
2023-02-15T11:18:46.327Z,46.36
2023-02-15T11:21:55.231Z,46.21
2023-02-15T11:25:02.845Z,46.51
2023-02-15T11:28:15.588Z,46.35
2023-02-15T11:31:24.416Z,46.67
2023-02-15T11:34:36.780Z,46.87
2023-02-15T11:37:50.864Z,45.23
2023-02-15T11:40:59.171Z,46.39
2023-02-15T11:44:10.803Z,46.31
2023-02-15T11:47:16.608Z,46.40
2023-02-15T11:50:25.617Z,46.22
2023-02-15T11:53:34.160Z,46.30
2023-02-15T11:56:38.733Z,47.25
2023-02-15T11:59:48.155Z,47.22
2023-02-15T12:02:57.328Z,47.04
2023-02-15T12:06:06.102Z,45.72
2023-02-15T12:09:23.749Z,45.41
2023-02-15T12:12:32.560Z,45.36
2023-02-15T12:15:37.909Z,44.76
2023-02-15T12:18:46.693Z,45.34
2023-02-15T12:21:55.016Z,45.02
2023-02-15T12:25:02.727Z,44.47
2023-02-15T12:28:26.625Z,44.63
2023-02-15T12:31:39.408Z,45.05
2023-02-15T12:34:47.585Z,44.79
2023-02-15T12:37:57.836Z,43.80
2023-02-15T12:41:04.072Z,44.21
2023-02-15T12:44:17.672Z,44.08
2023-02-15T12:47:29.046Z,43.82
2023-02-15T12:50:34.845Z,44.47
2023-02-15T12:53:40.276Z,44.25
2023-02-15T12:56:43.816Z,43.94
2023-02-15T12:59:52.577Z,43.59
2023-02-15T13:02:58.326Z,43.70
2023-02-15T13:06:08.580Z,43.62
2023-02-15T13:09:19.996Z,43.73
2023-02-15T13:12:27.597Z,42.40
2023-02-15T13:15:38.060Z,42.49
2023-02-15T13:18:46.412Z,43.96
2023-02-15T13:25:18.335Z,43.55
2023-02-15T13:28:26.515Z,43.56
2023-02-15T13:31:33.750Z,43.36
2023-02-15T13:34:40.492Z,42.78
2023-02-15T13:38:13.033Z,42.04
2023-02-15T13:41:22.587Z,42.49
2023-02-15T13:45:04.735Z,42.41
2023-02-15T13:48:20.228Z,42.36
2023-02-15T13:51:53.317Z,42.19
2023-02-15T13:55:23.176Z,41.42
2023-02-15T13:58:57.055Z,41.05
2023-02-15T14:02:14.123Z,41.55
2023-02-15T14:05:33.763Z,42.24
2023-02-15T14:08:51.225Z,41.90
2023-02-15T14:12:11.114Z,41.45
2023-02-15T14:15:28.073Z,41.14
2023-02-15T14:18:42.419Z,41.43
2023-02-15T14:21:56.742Z,42.18
2023-02-15T14:25:23.960Z,42.18
2023-02-15T14:28:45.451Z,42.32
2023-02-15T14:31:54.669Z,41.94
2023-02-15T14:35:01.888Z,42.01
2023-02-15T14:38:16.587Z,42.38
2023-02-15T14:41:27.960Z,41.97
2023-02-15T14:44:41.242Z,42.03
2023-02-15T14:47:47.455Z,41.86
2023-02-15T14:50:51.641Z,42.01
2023-02-15T14:53:56.578Z,41.89
2023-02-15T14:57:34.078Z,42.29
2023-02-15T15:00:43.004Z,42.62
2023-02-15T15:03:57.390Z,42.14
2023-02-15T15:07:06.704Z,42.53
2023-02-15T15:10:37.484Z,42.58
2023-02-15T15:13:56.601Z,42.71
2023-02-15T15:17:04.305Z,42.78
2023-02-15T15:20:17.615Z,42.89
2023-02-15T15:23:45.349Z,43.14
2023-02-15T15:26:51.821Z,43.25
2023-02-15T15:29:56.452Z,43.56
2023-02-15T15:33:15.065Z,43.85
2023-02-15T15:36:57.073Z,44.02
2023-02-15T15:40:52.250Z,44.07
2023-02-15T15:44:25.128Z,44.68
2023-02-15T15:48:06.617Z,45.28
2023-02-15T15:51:22.330Z,45.33
2023-02-15T15:54:28.803Z,45.51
2023-02-15T15:57:37.452Z,46.18
2023-02-15T16:00:48.763Z,46.08
2023-02-15T16:03:57.662Z,46.46
2023-02-15T16:07:22.928Z,46.55
2023-02-15T16:10:29.611Z,46.90
2023-02-15T16:13:33.362Z,47.15
2023-02-15T16:16:37.517Z,47.28
2023-02-15T16:19:44.053Z,47.51
2023-02-15T16:22:55.027Z,48.02
2023-02-15T16:26:11.365Z,49.05
2023-02-15T16:29:17.466Z,48.49
2023-02-15T16:32:25.864Z,48.63
2023-02-15T16:35:31.003Z,48.54
2023-02-15T16:39:11.994Z,48.83
2023-02-15T16:42:19.024Z,48.62
2023-02-15T16:45:27.912Z,49.13
2023-02-15T16:48:35.895Z,48.89
2023-02-15T16:51:45.463Z,49.75
2023-02-15T16:54:55.610Z,49.46
2023-02-15T16:58:05.232Z,49.94
2023-02-15T17:01:12.193Z,50.11
2023-02-15T17:04:30.225Z,49.76
2023-02-15T17:07:34.602Z,50.21
2023-02-15T17:10:43.662Z,50.57
2023-02-15T17:14:15.485Z,50.69
2023-02-15T17:17:24.230Z,50.36
2023-02-15T17:20:35.009Z,51.36
2023-02-15T17:23:55.628Z,51.32
2023-02-15T17:27:05.639Z,51.60
2023-02-15T17:30:18.767Z,51.34
2023-02-15T17:33:30.247Z,51.48
2023-02-15T17:36:34.552Z,50.95
2023-02-15T17:39:38.568Z,51.25
2023-02-15T17:42:46.044Z,52.00
2023-02-15T17:45:52.506Z,52.16
2023-02-15T17:48:57.632Z,51.36
2023-02-15T17:52:03.227Z,52.21
2023-02-15T17:55:33.017Z,51.84
2023-02-15T17:58:40.558Z,53.73
2023-02-15T18:02:06.218Z,53.08
2023-02-15T18:05:32.447Z,52.53
2023-02-15T18:08:54.844Z,52.07
2023-02-15T18:11:59.569Z,52.26
2023-02-15T18:15:05.842Z,52.52
2023-02-15T18:18:13.967Z,52.16
2023-02-15T18:21:19.145Z,52.54
2023-02-15T18:24:27.546Z,53.33
2023-02-15T18:27:33.333Z,53.79
2023-02-15T18:30:43.924Z,54.77
2023-02-15T18:33:50.767Z,53.73
2023-02-15T18:37:00.204Z,55.06
2023-02-15T18:40:05.062Z,53.82
2023-02-15T18:43:12.747Z,53.65
2023-02-15T18:46:18.979Z,54.29
2023-02-15T18:49:23.810Z,54.26
2023-02-15T18:52:36.116Z,54.51
2023-02-15T18:55:40.679Z,55.26
2023-02-15T18:58:46.218Z,54.20
2023-02-15T19:01:52.344Z,54.67
2023-02-15T19:04:55.812Z,53.85
2023-02-15T19:08:03.063Z,54.02
2023-02-15T19:11:07.000Z,54.50
2023-02-15T19:14:25.091Z,54.28
2023-02-15T19:17:31.177Z,53.97
2023-02-15T19:20:39.475Z,53.86
2023-02-15T19:23:43.038Z,53.09
2023-02-15T19:26:47.738Z,53.17
2023-02-15T19:29:51.677Z,53.55
2023-02-15T19:32:57.810Z,53.30
2023-02-15T19:36:03.025Z,53.58
2023-02-15T19:39:38.639Z,54.09
2023-02-15T19:42:43.945Z,54.09
2023-02-15T19:45:52.329Z,53.72
2023-02-15T19:48:57.587Z,53.42
2023-02-15T19:52:01.902Z,54.64
2023-02-15T19:55:07.151Z,54.35
2023-02-15T19:58:13.940Z,54.19
2023-02-15T20:01:18.310Z,54.28
2023-02-15T20:04:24.288Z,54.66
2023-02-15T20:07:29.425Z,55.00
2023-02-15T20:10:33.792Z,55.81
2023-02-15T20:13:37.367Z,54.83
2023-02-15T20:16:42.412Z,54.71
2023-02-15T20:19:47.877Z,54.70
2023-02-15T20:22:53.215Z,54.17
2023-02-15T20:25:59.406Z,54.97
2023-02-15T20:29:03.672Z,54.81
2023-02-15T20:32:07.235Z,54.13
2023-02-15T20:35:16.680Z,54.15
2023-02-15T20:38:23.084Z,54.46
2023-02-15T20:41:44.118Z,53.61
2023-02-15T20:44:48.187Z,53.19
2023-02-15T20:47:53.727Z,52.92
2023-02-15T20:50:59.972Z,53.25
2023-02-15T20:54:09.864Z,54.07
2023-02-15T20:57:14.115Z,54.98
2023-02-15T21:00:21.109Z,54.23
2023-02-15T21:03:30.864Z,54.92
2023-02-15T21:06:36.939Z,53.83
2023-02-15T21:14:27.221Z,54.51
2023-02-15T21:17:30.637Z,54.16
2023-02-15T21:20:51.196Z,54.15
2023-02-15T21:23:56.521Z,53.61
2023-02-15T21:27:04.412Z,52.57
2023-02-15T21:30:16.558Z,53.11
2023-02-15T21:33:23.927Z,53.35
2023-02-15T21:36:29.109Z,53.09
2023-02-15T21:39:37.642Z,53.72
2023-02-15T21:42:59.257Z,53.59
2023-02-15T21:46:30.915Z,52.79
2023-02-15T21:49:34.979Z,53.39
2023-02-15T21:52:38.551Z,53.99
2023-02-15T21:55:44.260Z,53.27
2023-02-15T21:58:49.299Z,53.91
2023-02-15T22:01:53.056Z,52.72
2023-02-15T22:04:57.227Z,53.39
2023-02-15T22:08:01.721Z,54.62
2023-02-15T22:11:12.818Z,54.80
2023-02-15T22:14:36.766Z,55.27
2023-02-15T22:17:40.550Z,54.60
2023-02-15T22:20:44.664Z,54.51
2023-02-15T22:23:48.663Z,54.88
2023-02-15T22:26:54.509Z,55.46
2023-02-15T22:29:58.955Z,54.51
2023-02-15T22:33:04.195Z,53.89
2023-02-15T22:36:22.810Z,53.98
2023-02-15T22:39:27.002Z,54.13
2023-02-15T22:42:32.191Z,53.54
2023-02-15T22:45:36.425Z,53.69
2023-02-15T22:48:40.445Z,53.27
2023-02-15T22:51:44.060Z,53.81
2023-02-15T22:54:48.139Z,54.76
2023-02-15T22:57:56.147Z,53.44
2023-02-15T23:01:00.905Z,53.33
2023-02-15T23:04:05.902Z,53.37
2023-02-15T23:07:16.150Z,52.71
2023-02-15T23:10:22.501Z,53.69
2023-02-15T23:13:33.104Z,53.51
2023-02-15T23:16:37.419Z,52.73
2023-02-15T23:19:41.850Z,52.18
2023-02-15T23:22:46.116Z,52.56
2023-02-15T23:25:50.328Z,52.95
2023-02-15T23:28:57.162Z,52.80
2023-02-15T23:32:01.604Z,52.87
2023-02-15T23:35:15.432Z,53.21
2023-02-15T23:38:21.902Z,54.64
2023-02-15T23:41:27.648Z,53.78
2023-02-15T23:44:34.188Z,54.28
2023-02-15T23:47:55.203Z,53.65
2023-02-15T23:50:59.676Z,53.20
2023-02-15T23:54:03.242Z,54.10
2023-02-15T23:57:07.093Z,53.97
